Time;durP1;ratioP1;P1;durP2;ratioP2;P2;SDS_P1;SDS_P2;PMS_P1;PMS_P2;Temp;Humidity;BMP_temperature;BMP_pressure;BME280_temperature;BME280_humidity;BME280_pressure;Samples;Min_cycle;Max_cycle;Signal;HPM_P1;HPM_P2
2023/09/06 00:00:59;;;;;;;5.60;4.97;;;;;;;;;;5056907;28;20229;-73
2023/09/06 00:03:27;;;;;;;5.57;4.87;;;;;;;;;;5056339;28;20210;-73
2023/09/06 00:05:54;;;;;;;6.37;5.77;;;;;;;;;;5049530;28;20642;-73
2023/09/06 00:08:21;;;;;;;7.67;6.10;;;;;;;;;;5053853;28;20222;-73
2023/09/06 00:10:49;;;;;;;8.23;6.83;;;;;;;;;;5056362;28;20226;-72
2023/09/06 00:13:17;;;;;;;8.90;7.20;;;;;;;;;;5056338;28;20263;-73
2023/09/06 00:15:45;;;;;;;9.77;8.53;;;;;;;;;;5070443;28;20564;-73
2023/09/06 00:18:12;;;;;;;10.23;8.53;;;;;;;;;;5070309;28;20563;-72
2023/09/06 00:20:40;;;;;;;7.77;6.63;;;;;;;;;;5059983;28;20233;-73
2023/09/06 00:23:12;;;;;;;5.93;5.33;;;;;;;;;;5057468;28;20209;-73
2023/09/06 00:25:39;;;;;;;7.33;6.00;;;;;;;;;;5062121;28;20204;-71
2023/09/06 00:28:07;;;;;;;8.00;5.73;;;;;;;;;;5052850;28;20222;-73
2023/09/06 00:30:35;;;;;;;8.07;6.10;;;;;;;;;;5057270;28;20631;-73
2023/09/06 00:33:07;;;;;;;6.30;5.43;;;;;;;;;;5061721;28;20201;-73
2023/09/06 00:35:35;;;;;;;6.67;5.47;;;;;;;;;;5066890;28;20233;-73
2023/09/06 00:38:05;;;;;;;6.00;5.30;;;;;;;;;;5053622;28;20205;-73
2023/09/06 00:40:36;;;;;;;6.60;4.57;;;;;;;;;;5061451;28;20226;-73
2023/09/06 00:43:04;;;;;;;5.40;4.33;;;;;;;;;;5061077;28;20213;-73
2023/09/06 00:45:44;;;;;;;6.43;5.03;;;;;;;;;;5048127;28;20210;-73
2023/09/06 00:48:22;;;;;;;6.50;5.60;;;;;;;;;;5058083;28;20225;-73
2023/09/06 00:50:51;;;;;;;34.30;19.90;;;;;;;;;;5053959;28;20217;-73
2023/09/06 00:53:19;;;;;;;34.23;19.67;;;;;;;;;;5067853;28;20278;-72
2023/09/06 00:55:48;;;;;;;45.07;24.30;;;;;;;;;;5071536;28;20626;-73
2023/09/06 00:58:16;;;;;;;87.23;42.87;;;;;;;;;;5065322;28;20527;-73
2023/09/06 01:00:44;;;;;;;56.83;30.20;;;;;;;;;;5066708;28;20315;-73
2023/09/06 01:03:12;;;;;;;34.67;19.77;;;;;;;;;;5064621;28;20205;-71
2023/09/06 01:05:42;;;;;;;14.57;9.60;;;;;;;;;;5063645;28;20631;-73
2023/09/06 01:08:11;;;;;;;7.73;6.40;;;;;;;;;;5063623;28;20698;-72
2023/09/06 01:10:39;;;;;;;6.50;5.80;;;;;;;;;;5062170;28;20224;-72
2023/09/06 01:13:06;;;;;;;6.27;5.40;;;;;;;;;;5060098;28;20206;-73
2023/09/06 01:15:33;;;;;;;7.53;5.70;;;;;;;;;;5065830;28;20197;-72
2023/09/06 01:18:03;;;;;;;7.17;5.83;;;;;;;;;;5070922;28;20632;-73
2023/09/06 01:20:41;;;;;;;6.30;5.70;;;;;;;;;;5069977;28;20222;-72
2023/09/06 01:23:11;;;;;;;5.90;5.30;;;;;;;;;;5068878;28;20244;-73
2023/09/06 01:25:39;;;;;;;6.20;5.60;;;;;;;;;;5072840;28;20277;-72
2023/09/06 01:28:07;;;;;;;7.40;5.90;;;;;;;;;;5064369;28;20218;-71
2023/09/06 01:30:35;;;;;;;6.20;5.60;;;;;;;;;;5059131;28;20218;-73
2023/09/06 01:33:03;;;;;;;6.93;6.13;;;;;;;;;;5069646;28;20615;-72
2023/09/06 01:35:30;;;;;;;7.50;6.47;;;;;;;;;;5070947;28;20555;-73
2023/09/06 01:37:57;;;;;;;8.83;6.60;;;;;;;;;;5074364;28;20440;-73
2023/09/06 01:40:26;;;;;;;8.03;6.50;;;;;;;;;;5062926;28;20208;-72
2023/09/06 01:42:54;;;;;;;9.40;6.70;;;;;;;;;;5075646;28;20197;-73
2023/09/06 01:45:21;;;;;;;6.37;5.67;;;;;;;;;;5057368;28;20199;-73
2023/09/06 01:47:48;;;;;;;6.77;5.53;;;;;;;;;;5062415;28;20217;-73
2023/09/06 01:50:19;;;;;;;6.37;5.67;;;;;;;;;;5056804;28;20206;-73
2023/09/06 01:52:52;;;;;;;6.67;5.77;;;;;;;;;;5053850;28;20198;-73
2023/09/06 01:55:20;;;;;;;6.43;5.70;;;;;;;;;;5067070;28;20206;-72
2023/09/06 01:57:47;;;;;;;6.43;5.67;;;;;;;;;;5055784;28;20202;-72
2023/09/06 02:02:48;;;;;;;6.03;5.43;;;;;;;;;;5059159;28;20198;-72
2023/09/06 02:05:15;;;;;;;6.83;5.60;;;;;;;;;;5070378;28;20205;-72
2023/09/06 02:07:43;;;;;;;7.77;6.00;;;;;;;;;;5059113;28;20206;-72
2023/09/06 02:10:10;;;;;;;7.47;6.27;;;;;;;;;;5066303;28;20236;-73
2023/09/06 02:12:38;;;;;;;6.40;5.80;;;;;;;;;;5066319;28;20225;-73
2023/09/06 02:15:07;;;;;;;6.43;5.83;;;;;;;;;;5067624;28;20197;-73
2023/09/06 02:17:35;;;;;;;7.50;5.97;;;;;;;;;;5061230;28;20289;-73
2023/09/06 02:22:42;;;;;;;6.83;6.20;;;;;;;;;;5064783;28;20198;-72
2023/09/06 02:25:09;;;;;;;6.33;5.73;;;;;;;;;;5058427;28;20695;-72
2023/09/06 02:27:37;;;;;;;6.20;5.60;;;;;;;;;;5068005;28;20331;-72
2023/09/06 02:30:07;;;;;;;11.07;6.40;;;;;;;;;;5073916;22;20237;-80
2023/09/06 02:32:35;;;;;;;6.57;5.40;;;;;;;;;;5049266;28;20202;-79
2023/09/06 02:35:03;;;;;;;6.70;5.53;;;;;;;;;;5053395;28;20206;-80
2023/09/06 02:37:32;;;;;;;9.47;6.20;;;;;;;;;;5051141;28;20438;-79
2023/09/06 02:40:00;;;;;;;7.10;6.40;;;;;;;;;;5054624;28;20275;-78
2023/09/06 02:42:30;;;;;;;6.60;6.07;;;;;;;;;;5052367;28;20199;-79
2023/09/06 02:44:58;;;;;;;7.33;5.73;;;;;;;;;;5053939;28;20206;-80
2023/09/06 02:47:28;;;;;;;6.50;5.57;;;;;;;;;;5053986;28;20198;-80
2023/09/06 02:49:59;;;;;;;7.20;5.83;;;;;;;;;;5037253;28;20614;-80
2023/09/06 02:52:28;;;;;;;8.27;5.73;;;;;;;;;;5054134;28;20249;-79
2023/09/06 02:54:57;;;;;;;8.23;5.70;;;;;;;;;;5039182;28;20266;-78
2023/09/06 02:57:26;;;;;;;7.43;5.60;;;;;;;;;;5043530;28;20195;-79
2023/09/06 02:59:54;;;;;;;6.70;5.73;;;;;;;;;;5042474;28;20253;-79
2023/09/06 03:02:24;;;;;;;6.17;5.57;;;;;;;;;;5036268;28;20264;-79
2023/09/06 03:05:03;;;;;;;6.10;5.50;;;;;;;;;;5054332;28;20649;-79
2023/09/06 03:07:33;;;;;;;7.10;6.00;;;;;;;;;;5035887;28;20259;-81
2023/09/06 03:10:03;;;;;;;8.00;6.70;;;;;;;;;;5057790;28;20230;-82
2023/09/06 03:12:32;;;;;;;7.20;6.20;;;;;;;;;;5053220;28;20425;-79
2023/09/06 03:15:01;;;;;;;7.50;6.80;;;;;;;;;;5035702;28;20202;-79
2023/09/06 03:17:30;;;;;;;10.77;7.13;;;;;;;;;;5050084;28;20208;-80
2023/09/06 03:19:59;;;;;;;8.47;7.37;;;;;;;;;;5052223;28;20226;-79
2023/09/06 03:22:27;;;;;;;8.10;5.93;;;;;;;;;;5053501;28;20581;-81
2023/09/06 03:24:55;;;;;;;7.40;6.07;;;;;;;;;;5058807;28;20201;-78
2023/09/06 03:27:28;;;;;;;6.63;6.03;;;;;;;;;;5034711;28;20585;-80
2023/09/06 03:29:57;;;;;;;7.00;6.20;;;;;;;;;;5031770;28;20229;-79
2023/09/06 03:32:24;;;;;;;6.70;6.10;;;;;;;;;;5052541;28;20206;-78
2023/09/06 03:34:52;;;;;;;6.77;6.07;;;;;;;;;;5052186;28;20201;-79
2023/09/06 03:37:23;;;;;;;6.60;6.00;;;;;;;;;;5051818;28;20267;-79
2023/09/06 03:39:53;;;;;;;7.63;6.70;;;;;;;;;;5032955;28;20217;-80
2023/09/06 03:42:23;;;;;;;8.07;6.53;;;;;;;;;;5052958;28;20233;-78
2023/09/06 03:44:52;;;;;;;7.07;6.37;;;;;;;;;;5050716;28;20248;-79
2023/09/06 03:47:21;;;;;;;7.10;6.27;;;;;;;;;;5051544;28;20703;-79
2023/09/06 03:49:48;;;;;;;7.63;6.23;;;;;;;;;;5052240;28;20264;-80
2023/09/06 03:52:16;;;;;;;7.07;6.37;;;;;;;;;;5052132;28;20252;-79
2023/09/06 03:54:44;;;;;;;6.93;6.20;;;;;;;;;;5028310;28;20268;-80
2023/09/06 03:57:13;;;;;;;6.63;5.87;;;;;;;;;;5034007;28;20205;-79
2023/09/06 03:59:42;;;;;;;6.60;5.93;;;;;;;;;;5035311;28;20272;-77
2023/09/06 04:02:13;;;;;;;8.03;6.43;;;;;;;;;;5051915;28;20510;-80
2023/09/06 04:04:43;;;;;;;8.57;6.33;;;;;;;;;;5034128;28;20206;-78
2023/09/06 04:07:14;;;;;;;6.80;6.10;;;;;;;;;;5033580;28;20202;-77
2023/09/06 04:09:43;;;;;;;9.37;7.50;;;;;;;;;;5025748;28;20685;-79
2023/09/06 04:12:12;;;;;;;9.93;6.90;;;;;;;;;;5051384;28;20289;-79
2023/09/06 04:14:41;;;;;;;7.43;6.57;;;;;;;;;;5050165;28;20221;-79
2023/09/06 04:17:09;;;;;;;7.50;6.50;;;;;;;;;;5057013;28;20202;-80
2023/09/06 04:19:38;;;;;;;8.00;6.47;;;;;;;;;;5052857;28;20258;-80
2023/09/06 04:22:07;;;;;;;8.37;6.13;;;;;;;;;;5051456;28;20256;-79
2023/09/06 04:24:37;;;;;;;7.20;6.50;;;;;;;;;;5033200;28;20198;-82
2023/09/06 04:27:05;;;;;;;6.90;6.10;;;;;;;;;;5031982;28;20427;-79
2023/09/06 04:29:32;;;;;;;7.13;6.47;;;;;;;;;;5049591;28;20229;-79
2023/09/06 04:31:59;;;;;;;7.00;6.30;;;;;;;;;;5047267;28;20286;-78
2023/09/06 04:34:27;;;;;;;7.90;7.10;;;;;;;;;;5058414;28;20214;-80
2023/09/06 04:36:56;;;;;;;8.93;7.70;;;;;;;;;;5034053;28;20252;-80
2023/09/06 04:39:28;;;;;;;8.20;7.30;;;;;;;;;;5049061;28;20206;-80
2023/09/06 04:41:55;;;;;;;8.77;7.90;;;;;;;;;;5051830;28;20272;-80
2023/09/06 04:44:24;;;;;;;9.43;7.93;;;;;;;;;;5051386;28;20252;-79
2023/09/06 04:46:52;;;;;;;8.80;7.80;;;;;;;;;;5050223;28;20209;-81
2023/09/06 04:49:22;;;;;;;9.40;7.53;;;;;;;;;;5034555;28;20712;-79
2023/09/06 04:51:52;;;;;;;9.13;7.10;;;;;;;;;;5033028;28;20209;-80
2023/09/06 04:54:21;;;;;;;8.33;7.40;;;;;;;;;;5051432;28;20737;-78
2023/09/06 04:56:49;;;;;;;9.17;6.80;;;;;;;;;;5052073;28;20206;-78
2023/09/06 04:59:17;;;;;;;8.17;6.93;;;;;;;;;;5029191;28;20480;-79
2023/09/06 05:01:45;;;;;;;8.03;7.30;;;;;;;;;;5050752;28;20267;-79
2023/09/06 05:04:12;;;;;;;10.63;8.03;;;;;;;;;;5051625;28;20585;-79
2023/09/06 05:06:41;;;;;;;8.00;7.03;;;;;;;;;;5052627;28;20211;-79
2023/09/06 05:09:10;;;;;;;8.20;7.40;;;;;;;;;;5048780;28;20232;-79
2023/09/06 05:11:39;;;;;;;7.20;6.50;;;;;;;;;;5051468;28;20236;-81
2023/09/06 05:14:07;;;;;;;8.40;7.60;;;;;;;;;;5033280;28;20207;-78
2023/09/06 05:16:37;;;;;;;9.57;7.20;;;;;;;;;;5051371;28;20686;-81
2023/09/06 05:19:04;;;;;;;7.27;6.57;;;;;;;;;;5055018;28;20806;-78
2023/09/06 05:21:35;;;;;;;8.60;6.77;;;;;;;;;;5050815;28;20750;-80
2023/09/06 05:24:03;;;;;;;7.80;6.93;;;;;;;;;;5057197;28;20284;-78
2023/09/06 05:26:33;;;;;;;7.27;6.57;;;;;;;;;;5051116;28;20242;-79
2023/09/06 05:29:04;;;;;;;13.33;9.30;;;;;;;;;;5033671;28;20248;-78
2023/09/06 05:31:32;;;;;;;18.70;10.83;;;;;;;;;;5050307;28;20237;-78
2023/09/06 05:34:00;;;;;;;18.10;11.43;;;;;;;;;;5050814;28;20198;-78
2023/09/06 05:36:29;;;;;;;12.67;9.23;;;;;;;;;;5049963;28;20293;-80
2023/09/06 05:38:57;;;;;;;11.43;9.10;;;;;;;;;;5051765;28;20656;-79
2023/09/06 05:41:27;;;;;;;11.90;8.27;;;;;;;;;;5052269;28;20609;-78
2023/09/06 05:43:56;;;;;;;8.57;7.43;;;;;;;;;;5037250;28;20194;-78
2023/09/06 05:46:24;;;;;;;9.93;7.50;;;;;;;;;;5053613;28;20198;-78
2023/09/06 05:48:59;;;;;;;8.83;7.20;;;;;;;;;;5052857;28;20205;-79
2023/09/06 05:51:28;;;;;;;8.47;7.10;;;;;;;;;;5035589;28;20226;-79
2023/09/06 05:54:00;;;;;;;8.07;7.27;;;;;;;;;;5053589;28;20202;-79
2023/09/06 05:56:27;;;;;;;9.53;7.70;;;;;;;;;;5053142;28;20212;-79
2023/09/06 05:58:57;;;;;;;10.77;6.90;;;;;;;;;;5053577;28;20204;-80
2023/09/06 06:01:25;;;;;;;10.80;7.23;;;;;;;;;;5053098;28;20727;-77
2023/09/06 06:03:52;;;;;;;8.43;7.17;;;;;;;;;;5052930;28;20210;-77
2023/09/06 06:06:22;;;;;;;8.90;6.87;;;;;;;;;;5035773;28;20212;-79
2023/09/06 06:08:49;;;;;;;7.27;6.53;;;;;;;;;;5035930;28;20198;-78
2023/09/06 06:11:19;;;;;;;12.47;7.27;;;;;;;;;;5035321;28;20226;-78
2023/09/06 06:13:51;;;;;;;8.20;7.40;;;;;;;;;;5036005;28;20202;-78
2023/09/06 06:16:36;;;;;;;9.03;7.60;;;;;;;;;;5039007;28;20279;-79
2023/09/06 06:19:04;;;;;;;9.40;7.73;;;;;;;;;;5053365;28;20626;-77
2023/09/06 06:21:31;;;;;;;9.00;7.57;;;;;;;;;;5052140;28;20580;-78
2023/09/06 06:24:00;;;;;;;8.30;7.20;;;;;;;;;;5035455;28;20653;-78
2023/09/06 06:26:29;;;;;;;7.70;6.80;;;;;;;;;;5035342;28;20202;-78
2023/09/06 06:28:56;;;;;;;8.03;7.23;;;;;;;;;;5052845;28;20642;-78
2023/09/06 06:31:24;;;;;;;7.60;6.70;;;;;;;;;;5051730;28;20238;-78
2023/09/06 06:33:53;;;;;;;7.83;7.00;;;;;;;;;;5052525;28;20198;-79
2023/09/06 06:36:21;;;;;;;7.57;6.77;;;;;;;;;;5052395;28;20252;-79
2023/09/06 06:38:49;;;;;;;7.73;7.00;;;;;;;;;;5052905;28;20201;-79
2023/09/06 06:41:22;;;;;;;11.23;8.93;;;;;;;;;;5058233;28;20226;-77
2023/09/06 06:43:52;;;;;;;11.27;8.77;;;;;;;;;;5039577;28;20668;-81
2023/09/06 06:46:27;;;;;;;8.60;7.70;;;;;;;;;;5056721;28;20437;-80
2023/09/06 06:48:56;;;;;;;10.23;7.30;;;;;;;;;;5055420;28;20197;-78
2023/09/06 06:51:25;;;;;;;10.00;7.80;;;;;;;;;;5054410;28;20230;-81
2023/09/06 06:53:54;;;;;;;7.80;7.00;;;;;;;;;;5054191;28;20199;-79
2023/09/06 06:56:24;;;;;;;9.32;7.30;;;;;;;;;;5053260;28;20212;-79
2023/09/06 06:58:52;;;;;;;8.80;7.90;;;;;;;;;;5053838;28;20218;-79
2023/09/06 07:01:27;;;;;;;7.78;6.80;;;;;;;;;;5052569;28;20229;-79
2023/09/06 07:03:55;;;;;;;8.10;6.80;;;;;;;;;;5040465;28;20197;-80
2023/09/06 07:06:24;;;;;;;7.57;6.75;;;;;;;;;;5054482;28;20202;-79
2023/09/06 07:08:53;;;;;;;6.95;6.32;;;;;;;;;;5052872;28;20214;-78
2023/09/06 07:11:22;;;;;;;7.65;6.85;;;;;;;;;;5052024;28;20532;-78
2023/09/06 07:13:52;;;;;;;6.68;6.07;;;;;;;;;;5053886;28;20199;-78
2023/09/06 07:16:21;;;;;;;7.15;6.43;;;;;;;;;;5052411;28;20206;-78
2023/09/06 07:18:50;;;;;;;7.22;6.53;;;;;;;;;;5051893;28;20236;-79
2023/09/06 07:21:19;;;;;;;6.90;6.03;;;;;;;;;;5051476;28;20668;-79
2023/09/06 07:23:48;;;;;;;7.65;6.53;;;;;;;;;;5034230;28;20625;-81
2023/09/06 07:26:15;;;;;;;7.13;6.43;;;;;;;;;;5060076;28;20217;-78
2023/09/06 07:28:46;;;;;;;8.68;6.45;;;;;;;;;;5044272;28;20297;-79
2023/09/06 07:31:15;;;;;;;8.77;6.25;;;;;;;;;;5051080;28;20328;-78
2023/09/06 07:33:42;;;;;;;6.78;6.07;;;;;;;;;;5051441;28;20199;-77
2023/09/06 07:36:11;;;;;;;7.78;6.63;;;;;;;;;;5034240;28;20194;-79
2023/09/06 07:38:40;;;;;;;7.90;5.88;;;;;;;;;;5033305;28;20201;-79
2023/09/06 07:41:08;;;;;;;7.15;5.90;;;;;;;;;;5052401;28;20225;-80
2023/09/06 07:43:36;;;;;;;6.00;5.43;;;;;;;;;;5051282;28;20212;-79
2023/09/06 07:46:08;;;;;;;7.43;5.75;;;;;;;;;;5051675;28;20206;-81
2023/09/06 07:48:38;;;;;;;6.60;6.05;;;;;;;;;;5051814;28;20664;-79
2023/09/06 07:51:06;;;;;;;9.52;5.95;;;;;;;;;;5051338;28;20233;-79
2023/09/06 07:53:34;;;;;;;6.85;5.35;;;;;;;;;;5051860;28;20202;-82
2023/09/06 07:56:05;;;;;;;6.43;5.85;;;;;;;;;;5033462;28;20218;-79
2023/09/06 07:58:35;;;;;;;7.70;5.22;;;;;;;;;;5033978;28;20208;-80
2023/09/06 08:01:04;;;;;;;6.47;5.82;;;;;;;;;;5032557;28;20256;-79
2023/09/06 08:03:45;;;;;;;6.15;5.30;;;;;;;;;;5043383;28;20202;-78
2023/09/06 08:06:15;;;;;;;8.77;6.07;;;;;;;;;;5034065;28;20283;-78
2023/09/06 08:08:43;;;;;;;7.13;5.80;;;;;;;;;;5050361;28;20209;-78
2023/09/06 08:11:12;;;;;;;7.28;5.90;;;;;;;;;;5050584;28;20230;-79
2023/09/06 08:13:41;;;;;;;6.72;6.00;;;;;;;;;;5050326;28;20692;-79
2023/09/06 08:16:11;;;;;;;6.28;5.30;;;;;;;;;;5026317;28;20202;-80
2023/09/06 08:18:40;;;;;;;6.30;5.70;;;;;;;;;;5050614;28;20207;-79
2023/09/06 08:21:09;;;;;;;6.60;5.43;;;;;;;;;;5051420;28;20221;-79
2023/09/06 08:23:38;;;;;;;7.65;6.07;;;;;;;;;;5050242;28;20229;-80
2023/09/06 08:26:07;;;;;;;5.82;5.22;;;;;;;;;;5050400;28;20233;-78
2023/09/06 08:28:35;;;;;;;6.40;5.80;;;;;;;;;;5050717;28;20692;-80
2023/09/06 08:31:03;;;;;;;10.88;8.43;;;;;;;;;;5066906;23;20236;-75
2023/09/06 08:33:31;;;;;;;6.65;5.63;;;;;;;;;;5070781;28;20229;-77
2023/09/06 08:35:58;;;;;;;6.15;5.55;;;;;;;;;;5071240;28;20204;-76
2023/09/06 08:38:26;;;;;;;6.53;5.93;;;;;;;;;;5062310;28;20730;-77
2023/09/06 08:40:53;;;;;;;7.00;5.68;;;;;;;;;;5064534;28;20229;-77
2023/09/06 08:43:20;;;;;;;7.30;5.03;;;;;;;;;;5071128;28;20585;-78
2023/09/06 08:45:50;;;;;;;7.13;4.90;;;;;;;;;;5071039;28;20201;-77
2023/09/06 08:48:17;;;;;;;6.25;5.60;;;;;;;;;;5070372;28;20209;-77
2023/09/06 08:50:46;;;;;;;7.03;5.20;;;;;;;;;;5074946;28;20217;-77
2023/09/06 08:53:16;;;;;;;5.32;4.78;;;;;;;;;;5081408;28;20213;-76
2023/09/06 08:55:45;;;;;;;5.90;5.40;;;;;;;;;;5074109;28;20212;-76
2023/09/06 08:58:13;;;;;;;6.53;4.88;;;;;;;;;;5076326;28;20201;-78
2023/09/06 09:00:42;;;;;;;5.85;5.30;;;;;;;;;;5075175;28;20599;-79
2023/09/06 09:03:10;;;;;;;5.20;4.68;;;;;;;;;;5075080;28;20205;-78
2023/09/06 09:05:37;;;;;;;5.30;4.80;;;;;;;;;;5074495;28;20210;-77
2023/09/06 09:08:04;;;;;;;5.00;4.60;;;;;;;;;;5075169;28;20212;-80
2023/09/06 09:10:33;;;;;;;7.20;5.28;;;;;;;;;;5067383;28;20681;-78
2023/09/06 09:13:01;;;;;;;5.13;4.72;;;;;;;;;;5079689;28;20206;-77
2023/09/06 09:15:32;;;;;;;4.72;4.32;;;;;;;;;;5076765;28;20300;-77
2023/09/06 09:18:09;;;;;;;5.38;4.50;;;;;;;;;;5076803;28;20221;-77
2023/09/06 09:20:38;;;;;;;7.05;4.60;;;;;;;;;;5076186;28;20384;-77
2023/09/06 09:23:11;;;;;;;5.30;4.80;;;;;;;;;;5075698;28;20601;-77
2023/09/06 09:25:46;;;;;;;5.32;4.78;;;;;;;;;;5075544;28;20286;-75
2023/09/06 09:28:14;;;;;;;5.22;4.72;;;;;;;;;;5071564;28;20197;-78
2023/09/06 09:30:42;;;;;;;6.78;4.63;;;;;;;;;;5074984;28;20707;-77
2023/09/06 09:33:09;;;;;;;4.72;4.32;;;;;;;;;;5075671;28;20724;-77
2023/09/06 09:35:37;;;;;;;4.78;4.32;;;;;;;;;;5075478;28;20202;-76
2023/09/06 09:38:06;;;;;;;4.88;4.20;;;;;;;;;;5074866;28;20204;-77
2023/09/06 09:40:33;;;;;;;5.15;4.70;;;;;;;;;;5073233;28;20311;-77
2023/09/06 09:43:19;;;;;;;5.85;4.30;;;;;;;;;;5073475;28;20249;-76
2023/09/06 09:45:46;;;;;;;4.88;4.10;;;;;;;;;;5074872;28;20207;-78
2023/09/06 09:48:15;;;;;;;5.93;4.38;;;;;;;;;;5073064;28;20211;-77
2023/09/06 09:50:46;;;;;;;4.60;4.20;;;;;;;;;;5072321;28;20711;-77
2023/09/06 09:53:15;;;;;;;4.65;4.22;;;;;;;;;;5073525;28;20297;-76
2023/09/06 09:55:48;;;;;;;4.60;4.20;;;;;;;;;;5072684;28;20233;-76
2023/09/06 09:58:17;;;;;;;4.35;4.03;;;;;;;;;;5073603;28;20205;-77
2023/09/06 10:00:44;;;;;;;5.00;4.50;;;;;;;;;;5072611;28;20322;-77
2023/09/06 10:03:13;;;;;;;4.72;4.32;;;;;;;;;;5072825;28;20301;-77
2023/09/06 10:05:45;;;;;;;5.70;4.53;;;;;;;;;;5072592;28;20583;-77
2023/09/06 10:08:13;;;;;;;5.53;4.65;;;;;;;;;;5073327;28;20251;-77
2023/09/06 10:10:41;;;;;;;4.93;4.43;;;;;;;;;;5076614;28;20233;-77
2023/09/06 10:13:09;;;;;;;5.53;4.40;;;;;;;;;;5072487;28;20202;-77
2023/09/06 10:15:37;;;;;;;4.75;4.22;;;;;;;;;;5072630;28;20201;-76
2023/09/06 10:18:06;;;;;;;5.38;4.60;;;;;;;;;;5072648;28;20649;-76
2023/09/06 10:20:34;;;;;;;4.20;3.90;;;;;;;;;;5072435;28;20244;-76
2023/09/06 10:23:05;;;;;;;5.00;4.30;;;;;;;;;;5072770;28;20206;-76
2023/09/06 10:25:38;;;;;;;4.60;3.95;;;;;;;;;;5072293;28;20275;-76
2023/09/06 10:28:05;;;;;;;5.07;4.50;;;;;;;;;;5066450;28;20746;-76
2023/09/06 10:30:34;;;;;;;4.57;4.18;;;;;;;;;;5071348;28;20271;-76
2023/09/06 10:33:02;;;;;;;4.55;4.10;;;;;;;;;;5072559;28;20737;-76
2023/09/06 10:35:33;;;;;;;3.97;3.65;;;;;;;;;;5072516;28;20297;-78
2023/09/06 10:38:10;;;;;;;4.97;4.47;;;;;;;;;;5071800;28;20255;-77
2023/09/06 10:40:50;;;;;;;6.00;4.20;;;;;;;;;;5072296;28;20228;-76
2023/09/06 10:43:18;;;;;;;4.57;4.18;;;;;;;;;;5072529;28;20440;-75
2023/09/06 10:45:55;;;;;;;4.03;3.63;;;;;;;;;;5072587;28;20206;-77
2023/09/06 10:48:23;;;;;;;4.10;3.60;;;;;;;;;;5071595;28;20212;-77
2023/09/06 10:51:19;;;;;;;4.10;3.25;;;;;;;;;;5070692;28;20232;-76
2023/09/06 10:53:48;;;;;;;4.70;3.50;;;;;;;;;;5048542;28;20205;-78
2023/09/06 10:56:27;;;;;;;3.92;3.63;;;;;;;;;;5072978;28;20263;-77
2023/09/06 10:58:57;;;;;;;4.25;3.95;;;;;;;;;;5072716;28;20197;-76
2023/09/06 11:01:24;;;;;;;4.82;3.80;;;;;;;;;;5124379;22;20298;-78
2023/09/06 11:03:52;;;;;;;4.22;3.70;;;;;;;;;;5051688;28;20203;-77
2023/09/06 11:06:19;;;;;;;3.65;3.28;;;;;;;;;;5060189;28;20679;-75
2023/09/06 11:08:47;;;;;;;4.03;3.20;;;;;;;;;;5064044;28;20268;-78
2023/09/06 11:11:14;;;;;;;4.00;3.28;;;;;;;;;;5048422;28;20234;-78
2023/09/06 11:13:43;;;;;;;4.70;3.70;;;;;;;;;;5044023;28;20245;-78
2023/09/06 11:16:14;;;;;;;3.72;3.40;;;;;;;;;;5038943;28;20199;-77
2023/09/06 11:18:46;;;;;;;3.80;3.40;;;;;;;;;;5046595;28;20234;-77
2023/09/06 11:21:20;;;;;;;3.88;3.58;;;;;;;;;;5042060;28;20277;-79
2023/09/06 11:23:51;;;;;;;3.25;3.05;;;;;;;;;;5046119;28;20231;-78
2023/09/06 11:26:19;;;;;;;4.43;3.42;;;;;;;;;;5043594;28;20261;-78
2023/09/06 11:28:50;;;;;;;4.43;3.40;;;;;;;;;;5033963;28;20215;-78
2023/09/06 11:31:25;;;;;;;4.03;3.72;;;;;;;;;;5041550;28;20693;-77
2023/09/06 11:34:01;;;;;;;3.88;3.58;;;;;;;;;;5047853;28;20198;-77
2023/09/06 11:36:32;;;;;;;3.75;3.45;;;;;;;;;;5045693;28;20212;-78
2023/09/06 11:39:22;;;;;;;3.50;3.20;;;;;;;;;;5047707;28;20654;-78
2023/09/06 11:41:50;;;;;;;4.38;3.80;;;;;;;;;;5046324;28;20264;-78
2023/09/06 11:44:19;;;;;;;5.38;3.40;;;;;;;;;;5044171;28;20210;-79
2023/09/06 11:46:48;;;;;;;3.63;3.33;;;;;;;;;;5046277;28;20215;-76
2023/09/06 11:49:19;;;;;;;3.65;3.35;;;;;;;;;;5047633;28;20213;-77
2023/09/06 11:51:47;;;;;;;3.90;3.50;;;;;;;;;;5039357;28;20226;-78
2023/09/06 11:54:15;;;;;;;4.03;3.58;;;;;;;;;;5046331;28;20719;-77
2023/09/06 11:56:47;;;;;;;4.35;4.05;;;;;;;;;;5047948;28;20203;-77
2023/09/06 11:59:17;;;;;;;5.78;3.80;;;;;;;;;;5047610;28;20758;-79
2023/09/06 12:01:45;;;;;;;3.88;3.45;;;;;;;;;;5035742;28;20257;-77
2023/09/06 12:04:16;;;;;;;4.13;3.70;;;;;;;;;;5036420;28;20202;-77
2023/09/06 12:06:44;;;;;;;3.63;3.33;;;;;;;;;;5029810;28;20206;-78
2023/09/06 12:09:18;;;;;;;3.53;3.22;;;;;;;;;;5041859;28;20203;-78
2023/09/06 12:11:45;;;;;;;3.38;3.08;;;;;;;;;;5038089;28;20232;-78
2023/09/06 12:14:13;;;;;;;3.42;3.13;;;;;;;;;;5046700;28;20233;-76
2023/09/06 12:16:41;;;;;;;3.33;3.05;;;;;;;;;;5037036;28;20203;-78
2023/09/06 12:19:13;;;;;;;5.97;3.15;;;;;;;;;;5041515;28;20249;-77
2023/09/06 12:21:40;;;;;;;3.38;3.15;;;;;;;;;;5044051;28;20230;-77
2023/09/06 12:24:07;;;;;;;3.53;3.08;;;;;;;;;;5046621;28;20198;-78
2023/09/06 12:26:35;;;;;;;3.20;3.00;;;;;;;;;;5038862;28;20356;-76
2023/09/06 12:29:03;;;;;;;2.95;2.65;;;;;;;;;;5040009;28;20202;-77
2023/09/06 12:31:31;;;;;;;3.10;2.60;;;;;;;;;;5044356;28;20319;-80
2023/09/06 12:33:59;;;;;;;3.45;2.92;;;;;;;;;;5041273;28;20194;-78
2023/09/06 12:36:27;;;;;;;3.30;3.00;;;;;;;;;;5045403;28;20202;-77
2023/09/06 12:38:54;;;;;;;3.30;3.00;;;;;;;;;;5033399;28;20210;-79
2023/09/06 12:41:21;;;;;;;3.53;2.90;;;;;;;;;;5045698;28;20260;-79
2023/09/06 12:43:49;;;;;;;5.22;3.08;;;;;;;;;;5039050;28;20597;-80
2023/09/06 12:46:18;;;;;;;3.28;2.97;;;;;;;;;;5046575;28;20217;-79
2023/09/06 12:48:46;;;;;;;3.38;2.80;;;;;;;;;;5051938;28;20234;-78
2023/09/06 12:51:14;;;;;;;4.50;2.78;;;;;;;;;;5054068;28;20233;-78
2023/09/06 12:53:41;;;;;;;3.20;2.92;;;;;;;;;;5050433;28;20230;-78
2023/09/06 12:56:11;;;;;;;3.60;3.30;;;;;;;;;;5044255;28;20203;-78
2023/09/06 12:58:43;;;;;;;6.13;3.03;;;;;;;;;;5039350;28;20226;-78
2023/09/06 13:01:11;;;;;;;3.28;2.97;;;;;;;;;;5048435;28;20229;-79
2023/09/06 13:03:41;;;;;;;3.08;2.88;;;;;;;;;;5045425;28;20202;-78
2023/09/06 13:06:09;;;;;;;3.45;3.03;;;;;;;;;;5053202;28;20306;-78
2023/09/06 13:08:36;;;;;;;3.97;3.15;;;;;;;;;;5044064;28;20255;-77
2023/09/06 13:11:03;;;;;;;3.83;2.75;;;;;;;;;;5042510;28;20682;-79
2023/09/06 13:13:31;;;;;;;2.75;2.55;;;;;;;;;;5044463;28;20210;-77
2023/09/06 13:15:58;;;;;;;3.17;2.72;;;;;;;;;;5038294;28;20202;-79
2023/09/06 13:18:25;;;;;;;3.15;2.50;;;;;;;;;;5044071;28;20213;-80
2023/09/06 13:20:59;;;;;;;2.80;2.60;;;;;;;;;;5051792;28;20227;-77
2023/09/06 13:23:26;;;;;;;2.65;2.45;;;;;;;;;;5050765;28;20210;-79
2023/09/06 13:25:53;;;;;;;2.88;2.65;;;;;;;;;;5038101;28;20207;-78
2023/09/06 13:28:21;;;;;;;4.57;2.80;;;;;;;;;;5059609;28;20676;-80
2023/09/06 13:30:48;;;;;;;2.80;2.60;;;;;;;;;;5050003;28;20565;-78
2023/09/06 13:33:15;;;;;;;5.90;2.53;;;;;;;;;;5049606;28;20209;-78
2023/09/06 13:35:42;;;;;;;5.07;2.90;;;;;;;;;;5048504;28;20791;-78
2023/09/06 13:38:12;;;;;;;4.10;3.70;;;;;;;;;;5045184;28;20626;-77
2023/09/06 13:40:39;;;;;;;3.20;2.90;;;;;;;;;;5049287;28;20231;-78
2023/09/06 13:43:07;;;;;;;3.03;2.72;;;;;;;;;;5038618;28;20213;-80
2023/09/06 13:45:34;;;;;;;3.28;2.97;;;;;;;;;;5048181;28;20209;-79
2023/09/06 13:48:01;;;;;;;4.55;2.95;;;;;;;;;;5048784;28;20205;-79
2023/09/06 13:50:28;;;;;;;3.38;3.08;;;;;;;;;;5042085;28;20222;-78
2023/09/06 13:52:56;;;;;;;3.90;3.40;;;;;;;;;;5043040;28;20277;-78
2023/09/06 13:55:23;;;;;;;3.60;3.30;;;;;;;;;;5049787;28;20673;-78
2023/09/06 13:57:50;;;;;;;3.40;3.10;;;;;;;;;;5042989;28;20286;-77
2023/09/06 14:00:18;;;;;;;3.35;3.05;;;;;;;;;;5043487;28;20230;-81
2023/09/06 14:02:46;;;;;;;3.58;3.17;;;;;;;;;;5041674;28;20207;-78
2023/09/06 14:05:14;;;;;;;3.80;3.40;;;;;;;;;;5040829;28;20591;-80
2023/09/06 14:07:41;;;;;;;3.50;3.20;;;;;;;;;;5045713;28;20206;-78
2023/09/06 14:10:08;;;;;;;3.63;3.33;;;;;;;;;;5044489;28;20229;-79
2023/09/06 14:12:36;;;;;;;3.58;2.83;;;;;;;;;;5039365;28;20276;-76
2023/09/06 14:15:03;;;;;;;5.00;3.53;;;;;;;;;;5043609;28;20199;-76
2023/09/06 14:17:31;;;;;;;3.90;2.90;;;;;;;;;;5044979;28;20244;-80
2023/09/06 14:19:58;;;;;;;3.45;3.03;;;;;;;;;;5047141;28;20233;-78
2023/09/06 14:22:26;;;;;;;3.63;3.33;;;;;;;;;;5036905;28;20264;-80
2023/09/06 14:24:53;;;;;;;5.88;3.53;;;;;;;;;;5046661;28;20210;-76
2023/09/06 14:27:20;;;;;;;3.70;3.40;;;;;;;;;;5043333;28;20586;-78
2023/09/06 14:29:49;;;;;;;3.75;3.00;;;;;;;;;;5035709;28;20891;-79
2023/09/06 14:32:16;;;;;;;5.55;3.13;;;;;;;;;;5048818;28;20280;-80
2023/09/06 14:34:44;;;;;;;4.30;3.10;;;;;;;;;;5036383;28;20199;-79
2023/09/06 14:37:11;;;;;;;3.67;3.17;;;;;;;;;;5050633;28;20203;-79
2023/09/06 14:39:38;;;;;;;3.33;3.03;;;;;;;;;;5045504;28;20238;-79
2023/09/06 14:42:07;;;;;;;3.45;3.15;;;;;;;;;;5042093;28;20320;-79
2023/09/06 14:44:34;;;;;;;3.35;3.05;;;;;;;;;;5039245;28;20601;-80
2023/09/06 14:47:03;;;;;;;3.63;3.20;;;;;;;;;;5046786;28;20293;-79
2023/09/06 14:49:30;;;;;;;5.00;3.45;;;;;;;;;;5046081;28;20207;-76
2023/09/06 14:51:58;;;;;;;3.60;3.00;;;;;;;;;;5046428;28;20219;-79
2023/09/06 14:54:28;;;;;;;3.95;3.13;;;;;;;;;;5043313;28;20206;-79
2023/09/06 14:56:58;;;;;;;3.30;3.00;;;;;;;;;;5030583;28;20211;-80